Terminal Aerodrome Forecast
Issued by NWS Northern Indiana

Home | Current Version | Previous Version | Text Only | Print | Product List | Glossary Off
Versions: 1 2 3 4 5 6 7 8 9 10 11 12 13 14 15 16 17 18

000
FTUS43 KIWX 050521
TAFFWA
TAF
KFWA 050521Z 0506/0606 32008KT 5SM -DZ BR BKN008 OVC012
     FM051300 36012KT P6SM OVC010
     FM051500 01014G24KT P6SM SCT015
     FM060100 31005KT P6SM SCT025=

USA.gov is the U.S. government's official web portal to all federal, state and local government web resources and services.